createdAt,value
2022-12-25T00:00:16.672Z,48.53
2022-12-25T00:01:11.162Z,48.82
2022-12-25T00:02:10.111Z,49.21
2022-12-25T01:39:06.078Z,45.51
2022-12-25T01:40:05.057Z,45.84
2022-12-25T01:41:05.034Z,43.83
2022-12-25T01:42:04.962Z,48.27
2022-12-25T01:43:04.925Z,45.56
2022-12-25T01:44:04.885Z,47.17
2022-12-25T01:45:04.806Z,46.18
2022-12-25T01:46:04.796Z,47.42
2022-12-25T01:48:04.683Z,47.07
2022-12-25T01:49:04.622Z,46.21
2022-12-25T01:50:04.549Z,44.16
2022-12-25T01:51:04.505Z,46.87
2022-12-25T01:52:04.439Z,45.80
2022-12-25T01:53:04.399Z,47.71
2022-12-25T01:54:04.367Z,46.71
2022-12-25T01:55:04.416Z,48.21
2022-12-25T01:56:04.231Z,46.14
2022-12-25T01:57:04.201Z,46.10
2022-12-25T01:58:04.118Z,46.69
2022-12-25T01:59:04.072Z,46.87
2022-12-25T02:00:04.017Z,44.34
2022-12-25T02:01:04.029Z,45.46
2022-12-25T02:02:04.047Z,46.17
2022-12-25T02:03:03.919Z,45.82
2022-12-25T02:04:03.802Z,43.22
2022-12-25T02:05:03.792Z,43.92
2022-12-25T02:06:03.709Z,43.66
2022-12-25T02:07:03.639Z,46.70
2022-12-25T02:08:03.625Z,46.98
2022-12-25T02:09:03.551Z,46.36
2022-12-25T02:10:03.514Z,46.52
2022-12-25T02:22:03.019Z,44.94
2022-12-25T02:23:02.788Z,45.21
2022-12-25T02:24:02.751Z,45.52
2022-12-25T02:26:02.664Z,45.28
2022-12-25T02:27:02.708Z,46.19
2022-12-25T02:28:02.546Z,47.89
2022-12-25T02:29:02.486Z,46.18
2022-12-25T02:30:02.419Z,44.46
2022-12-25T02:31:02.353Z,48.53
2022-12-25T02:32:02.381Z,46.77
2022-12-25T02:33:02.263Z,44.42
2022-12-25T02:34:02.203Z,44.48
2022-12-25T02:35:02.137Z,44.56
2022-12-25T02:36:02.082Z,43.38
2022-12-25T02:37:02.029Z,44.64
2022-12-25T02:38:01.988Z,44.04
2022-12-25T02:39:01.948Z,44.91
2022-12-25T02:40:01.870Z,42.48
2022-12-25T02:41:01.815Z,43.64
2022-12-25T02:42:01.753Z,46.88
2022-12-25T02:43:01.702Z,44.60
2022-12-25T02:44:01.635Z,45.54
2022-12-25T02:45:01.599Z,45.75
2022-12-25T02:46:01.573Z,44.83
2022-12-25T02:47:01.461Z,43.97
2022-12-25T02:48:01.397Z,43.75
2022-12-25T02:49:01.359Z,47.49
2022-12-25T02:50:01.285Z,45.19
2022-12-25T02:51:01.225Z,45.35
2022-12-25T02:52:01.186Z,45.70
2022-12-25T02:53:01.121Z,45.37
2022-12-25T02:54:01.078Z,45.15
2022-12-25T02:55:01.027Z,46.08
2022-12-25T02:56:00.959Z,44.19
2022-12-25T02:57:00.919Z,44.72
2022-12-25T02:58:00.862Z,41.98
2022-12-25T02:59:00.820Z,45.24
2022-12-25T03:00:00.773Z,44.92
2022-12-25T03:01:00.826Z,45.10
2022-12-25T03:02:00.853Z,44.52
2022-12-25T03:03:00.636Z,45.56
2022-12-25T03:04:00.521Z,45.06
2022-12-25T03:05:00.519Z,45.07
2022-12-25T03:06:00.468Z,45.79
2022-12-25T03:07:00.394Z,44.76
2022-12-25T03:08:00.332Z,45.29
2022-12-25T03:09:00.293Z,43.86
2022-12-25T03:10:00.250Z,45.62
2022-12-25T03:11:00.185Z,45.91
2022-12-25T03:12:00.165Z,43.50
2022-12-25T03:13:00.144Z,42.60
2022-12-25T06:34:50.180Z,29.62
2022-12-25T06:35:50.155Z,27.84
2022-12-25T09:02:42.981Z,38.02
2022-12-25T09:03:42.929Z,33.93
2022-12-25T09:04:42.772Z,37.27
2022-12-25T09:05:42.719Z,34.42
2022-12-25T09:06:42.649Z,33.17
2022-12-25T09:07:42.644Z,34.31
2022-12-25T09:08:48.053Z,36.65
2022-12-25T09:10:42.450Z,36.99
2022-12-25T09:11:42.392Z,33.97
2022-12-25T09:12:42.356Z,34.80
2022-12-25T09:13:42.295Z,36.26
2022-12-25T09:14:42.241Z,37.12
2022-12-25T09:15:42.221Z,39.68
2022-12-25T09:16:42.140Z,40.31
2022-12-25T09:17:42.084Z,40.30
2022-12-25T09:18:42.062Z,39.71
2022-12-25T09:19:41.975Z,40.05
2022-12-25T09:20:41.927Z,43.65
2022-12-25T09:21:41.866Z,43.65
2022-12-25T09:23:41.790Z,43.70
2022-12-25T09:24:41.715Z,40.93
2022-12-25T09:25:41.665Z,40.64
2022-12-25T09:26:41.665Z,38.44
2022-12-25T09:27:41.558Z,37.96
2022-12-25T09:28:46.610Z,39.92
2022-12-25T09:30:41.452Z,40.16
2022-12-25T09:31:41.373Z,39.19
2022-12-25T09:32:41.323Z,38.80
2022-12-25T09:33:41.283Z,36.71
2022-12-25T09:34:41.241Z,37.89
2022-12-25T09:35:41.166Z,34.83
2022-12-25T09:36:41.114Z,35.27
2022-12-25T09:37:41.064Z,33.75
2022-12-25T09:38:41.014Z,36.85
2022-12-25T09:39:46.395Z,35.31
2022-12-25T09:41:40.870Z,35.67
2022-12-25T09:42:40.807Z,36.24
2022-12-25T09:43:40.753Z,35.06
2022-12-25T09:44:40.703Z,33.02
2022-12-25T09:45:40.629Z,34.69
2022-12-25T09:46:40.629Z,36.06
2022-12-25T09:47:40.525Z,35.92
2022-12-25T09:48:40.471Z,37.62
2022-12-25T09:49:40.426Z,35.98
2022-12-25T09:50:40.379Z,34.20
2022-12-25T09:51:40.312Z,36.46
2022-12-25T09:52:40.283Z,36.76
2022-12-25T09:53:40.219Z,35.48
2022-12-25T09:54:40.161Z,35.65
2022-12-25T09:55:40.110Z,36.39
2022-12-25T11:19:34.858Z,41.81
2022-12-25T11:20:34.802Z,41.48
2022-12-25T11:21:34.707Z,39.35
2022-12-25T11:22:34.686Z,47.16
2022-12-25T11:23:34.529Z,40.17
2022-12-25T11:24:34.453Z,44.87
2022-12-25T11:25:34.367Z,43.41
2022-12-25T11:26:34.266Z,49.01
2022-12-25T11:27:34.197Z,39.03
2022-12-25T11:28:34.102Z,47.35
2022-12-25T11:29:34.024Z,43.12
2022-12-25T11:30:33.967Z,47.40
2022-12-25T11:31:33.968Z,46.11
2022-12-25T11:32:33.785Z,44.58
2022-12-25T11:33:33.682Z,45.44
2022-12-25T11:34:33.593Z,45.69
2022-12-25T11:35:33.524Z,47.61
2022-12-25T11:36:33.433Z,42.72
2022-12-25T11:37:33.346Z,46.72
2022-12-25T11:38:33.277Z,42.90
2022-12-25T11:39:33.181Z,43.04
2022-12-25T11:40:33.114Z,41.82
2022-12-25T11:41:33.024Z,42.72
2022-12-25T11:42:32.932Z,40.16
2022-12-25T11:43:32.855Z,42.60
2022-12-25T11:44:32.766Z,39.61
2022-12-25T11:45:32.687Z,41.43
2022-12-25T11:46:32.612Z,41.32
2022-12-25T11:47:32.524Z,41.87
2022-12-25T11:48:32.426Z,38.02
2022-12-25T11:49:32.344Z,38.41
2022-12-25T11:50:32.271Z,39.62
2022-12-25T11:51:32.181Z,40.07
2022-12-25T11:52:32.110Z,39.35
2022-12-25T11:53:32.012Z,38.05
2022-12-25T11:54:31.941Z,36.78
2022-12-25T11:55:31.863Z,37.50
2022-12-25T11:56:31.759Z,36.54
2022-12-25T11:57:31.686Z,37.38
2022-12-25T11:58:31.606Z,35.88
2022-12-25T11:59:31.528Z,37.84
2022-12-25T12:00:31.439Z,33.87
2022-12-25T12:01:31.511Z,35.44
2022-12-25T12:02:31.358Z,31.89
2022-12-25T12:03:31.305Z,31.01
2022-12-25T12:04:35.132Z,29.67
2022-12-25T12:05:32.074Z,29.86
2022-12-25T12:06:30.969Z,29.71
2022-12-25T12:07:30.897Z,29.38
2022-12-25T12:08:30.814Z,24.27
2022-12-25T12:09:30.762Z,23.68
2022-12-25T12:10:30.675Z,26.61
2022-12-25T12:11:30.616Z,29.29
2022-12-25T12:12:30.548Z,25.73
2022-12-25T12:13:30.475Z,27.17
2022-12-25T12:14:30.405Z,28.02
2022-12-25T12:15:30.362Z,27.57
2022-12-25T12:16:30.314Z,28.99
2022-12-25T12:17:30.206Z,26.36
2022-12-25T12:18:30.185Z,29.66
2022-12-25T12:19:30.120Z,32.14
2022-12-25T13:18:24.936Z,47.93
2022-12-25T13:19:24.843Z,48.27
2022-12-25T13:20:24.742Z,42.50
2022-12-25T13:21:24.652Z,42.12
2022-12-25T13:22:24.560Z,40.84
2022-12-25T13:23:24.455Z,40.76
2022-12-25T13:24:24.356Z,37.47
2022-12-25T13:25:24.247Z,41.40
2022-12-25T13:26:24.160Z,29.98
2022-12-25T13:27:24.050Z,29.27
2022-12-25T13:28:23.988Z,25.00
2022-12-25T13:29:23.882Z,25.00
2022-12-25T13:30:23.794Z,25.00
2022-12-25T13:31:23.744Z,25.91
2022-12-25T13:32:23.655Z,26.79
2022-12-25T13:33:23.637Z,25.02
2022-12-25T13:34:23.548Z,27.06
2022-12-25T13:35:23.456Z,27.25
2022-12-25T13:36:23.344Z,25.33
2022-12-25T13:37:23.298Z,22.69
2022-12-25T13:38:23.215Z,20.85
2022-12-25T13:39:23.151Z,21.87
2022-12-25T13:40:23.071Z,28.00
2022-12-25T13:41:23.015Z,27.81
2022-12-25T13:42:22.962Z,29.23
2022-12-25T13:43:22.890Z,27.46
2022-12-25T13:44:22.838Z,29.92
2022-12-25T13:45:22.779Z,30.22
2022-12-25T13:46:22.759Z,29.92
2022-12-25T13:47:22.672Z,28.12
2022-12-25T13:48:22.584Z,27.86
2022-12-25T13:49:22.507Z,29.40
2022-12-25T13:50:22.458Z,30.56
2022-12-25T13:51:22.379Z,30.67
2022-12-25T13:52:22.368Z,30.81
2022-12-25T13:53:22.259Z,31.56
2022-12-25T13:54:22.205Z,32.16
2022-12-25T13:55:22.200Z,31.00
2022-12-25T13:56:22.080Z,30.31
2022-12-25T13:57:22.033Z,30.58
2022-12-25T13:58:21.983Z,31.17
2022-12-25T13:59:21.922Z,32.24
2022-12-25T14:00:21.843Z,32.31
2022-12-25T14:01:21.941Z,34.55
2022-12-25T14:02:21.833Z,34.86
2022-12-25T14:03:21.734Z,34.61
2022-12-25T14:04:21.608Z,34.69
2022-12-25T14:05:21.527Z,37.50
2022-12-25T14:06:21.488Z,36.25
2022-12-25T14:07:21.428Z,35.80
2022-12-25T14:08:21.385Z,37.21
2022-12-25T14:09:21.308Z,38.50
2022-12-25T14:10:21.236Z,35.61
2022-12-25T14:11:21.181Z,37.84
2022-12-25T14:12:21.151Z,37.50
2022-12-25T14:13:21.087Z,36.97
2022-12-25T14:14:20.996Z,39.91
2022-12-25T14:15:20.927Z,39.42
2022-12-25T14:16:20.933Z,38.28
2022-12-25T14:17:20.818Z,38.26
2022-12-25T14:18:20.769Z,38.74
2022-12-25T14:19:20.691Z,41.18
2022-12-25T14:20:20.626Z,41.90
2022-12-25T14:21:20.589Z,38.77
2022-12-25T14:22:20.524Z,39.44
2022-12-25T14:23:20.463Z,40.41
2022-12-25T14:24:20.418Z,39.83
2022-12-25T14:25:20.361Z,39.91
2022-12-25T14:26:20.314Z,39.49
2022-12-25T14:27:20.265Z,40.35
2022-12-25T14:28:20.193Z,40.18
2022-12-25T14:29:25.014Z,41.01
2022-12-25T14:30:21.087Z,41.16
2022-12-25T16:52:12.406Z,42.06
2022-12-25T16:53:12.355Z,43.08
2022-12-25T17:04:11.845Z,39.90
2022-12-25T17:08:11.588Z,42.92
2022-12-25T17:16:11.178Z,42.35
2022-12-25T17:26:10.618Z,46.06
2022-12-25T17:27:10.548Z,43.11
2022-12-25T17:28:10.509Z,42.66
2022-12-25T17:29:10.470Z,42.89
2022-12-25T17:30:10.407Z,42.52
2022-12-25T17:31:10.393Z,42.73
2022-12-25T17:32:10.286Z,43.79
2022-12-25T17:33:10.238Z,45.23
2022-12-25T17:34:10.175Z,44.84
2022-12-25T17:35:10.116Z,44.62
2022-12-25T19:16:04.856Z,49.15
2022-12-25T19:17:04.742Z,49.74
2022-12-25T19:18:04.694Z,50.55
2022-12-25T19:19:04.630Z,49.93
2022-12-25T19:20:04.591Z,51.75
2022-12-25T19:21:04.551Z,51.24
2022-12-25T19:22:04.494Z,50.77
2022-12-25T19:23:04.455Z,50.30
2022-12-25T19:24:04.375Z,49.15
2022-12-25T19:25:04.330Z,50.19
2022-12-25T19:26:04.262Z,49.84
2022-12-25T19:27:04.205Z,51.38
2022-12-25T19:28:04.157Z,51.53
2022-12-25T19:29:04.109Z,52.71
2022-12-25T19:30:04.056Z,49.15
2022-12-25T19:31:04.012Z,50.56
2022-12-25T19:32:04.020Z,50.34
2022-12-25T19:33:03.915Z,49.87
2022-12-25T19:34:03.843Z,48.94
2022-12-25T19:35:03.816Z,50.04
2022-12-25T19:36:03.741Z,50.01
2022-12-25T19:37:03.696Z,52.82
2022-12-25T19:38:03.643Z,50.65
2022-12-25T19:39:03.600Z,51.24
2022-12-25T19:40:03.555Z,51.86
2022-12-25T19:41:03.497Z,53.13
2022-12-25T19:42:03.435Z,51.28
2022-12-25T19:43:03.409Z,52.75
2022-12-25T19:44:03.330Z,52.54
2022-12-25T19:45:03.294Z,47.41
2022-12-25T19:46:03.311Z,51.18
2022-12-25T19:47:03.180Z,49.76
2022-12-25T19:48:03.129Z,50.36
2022-12-25T19:49:03.069Z,52.42
2022-12-25T19:50:03.861Z,51.87
2022-12-25T19:51:02.965Z,50.72
2022-12-25T19:52:02.927Z,51.87
2022-12-25T19:53:02.887Z,51.87
2022-12-25T19:54:02.824Z,51.71
2022-12-25T19:55:02.750Z,52.68
2022-12-25T19:56:02.706Z,50.21
2022-12-25T19:57:02.697Z,51.95
2022-12-25T19:58:02.607Z,53.91
2022-12-25T19:59:02.548Z,49.80
2022-12-25T20:00:02.507Z,50.03
2022-12-25T20:01:02.467Z,51.41
2022-12-25T20:02:02.572Z,49.89
2022-12-25T20:03:02.432Z,52.19
2022-12-25T20:04:02.293Z,52.32
2022-12-25T20:05:02.247Z,53.58
2022-12-25T20:06:02.186Z,51.93
2022-12-25T20:07:02.155Z,54.73
2022-12-25T20:08:02.082Z,50.62
2022-12-25T20:09:02.023Z,52.35
2022-12-25T20:10:01.971Z,50.35
2022-12-25T20:11:01.916Z,50.65
2022-12-25T20:12:01.869Z,53.29
2022-12-25T20:13:01.814Z,52.51
2022-12-25T20:14:01.778Z,50.05
2022-12-25T20:15:01.716Z,51.95
2022-12-25T20:16:01.816Z,50.50
2022-12-25T20:17:01.636Z,53.89
2022-12-25T20:18:01.527Z,54.29
2022-12-25T20:19:01.486Z,51.03
2022-12-25T20:20:01.416Z,54.22
2022-12-25T20:21:01.392Z,52.15
2022-12-25T20:22:01.318Z,51.84
2022-12-25T20:23:01.264Z,51.89
2022-12-25T20:24:01.267Z,53.14
2022-12-25T20:25:01.159Z,53.23
2022-12-25T20:26:01.111Z,50.45
2022-12-25T20:27:01.109Z,53.45
2022-12-25T20:28:01.007Z,51.63
2022-12-25T20:29:00.963Z,51.80
2022-12-25T20:30:00.914Z,51.09
2022-12-25T20:31:00.872Z,52.35
2022-12-25T20:32:00.846Z,53.24
2022-12-25T20:33:00.778Z,51.73
2022-12-25T20:34:00.720Z,53.57
2022-12-25T20:35:00.684Z,50.31
2022-12-25T20:36:00.589Z,53.10
2022-12-25T20:37:00.560Z,49.84
2022-12-25T20:38:00.490Z,54.55
2022-12-25T20:39:00.447Z,51.84
2022-12-25T20:40:00.447Z,54.09
2022-12-25T20:41:25.823Z,52.30
2022-12-25T20:42:00.339Z,52.55
2022-12-25T20:43:00.251Z,52.38
2022-12-25T20:44:00.197Z,53.07
2022-12-25T20:45:00.133Z,51.01
2022-12-25T20:46:00.154Z,55.67
2022-12-25T20:52:59.731Z,53.54
2022-12-25T20:59:59.336Z,53.05
2022-12-25T21:00:59.291Z,54.34
2022-12-25T21:01:59.499Z,50.81
2022-12-25T21:02:59.258Z,52.89
2022-12-25T21:03:59.189Z,52.75
2022-12-25T21:04:59.063Z,52.03
2022-12-25T21:05:59.000Z,51.62
2022-12-25T21:06:58.964Z,49.63
2022-12-25T21:07:58.890Z,55.76
2022-12-25T21:08:58.828Z,53.56
2022-12-25T21:09:58.769Z,52.63
2022-12-25T21:10:58.745Z,48.80
2022-12-25T21:11:58.702Z,53.11
2022-12-25T21:12:58.609Z,53.07
2022-12-25T21:13:58.576Z,53.61
2022-12-25T21:14:58.500Z,49.75
2022-12-25T21:15:58.444Z,50.91
2022-12-25T21:16:58.388Z,53.71
2022-12-25T21:17:58.307Z,53.66
2022-12-25T21:18:58.259Z,53.85
2022-12-25T21:19:58.205Z,53.74
2022-12-25T21:20:58.142Z,52.90
2022-12-25T21:21:58.098Z,51.71
2022-12-25T21:22:58.067Z,51.84
2022-12-25T21:23:58.009Z,54.59
2022-12-25T21:24:57.920Z,53.56
2022-12-25T21:25:57.862Z,52.53
2022-12-25T21:26:57.796Z,52.55
2022-12-25T21:27:57.791Z,51.77
2022-12-25T21:28:57.696Z,54.62
2022-12-25T21:29:57.634Z,53.42
2022-12-25T21:30:57.622Z,52.43
2022-12-25T21:31:57.507Z,53.66
2022-12-25T21:32:57.449Z,54.95
2022-12-25T21:33:57.421Z,54.41
2022-12-25T21:34:57.338Z,53.51
2022-12-25T21:35:57.280Z,54.50
2022-12-25T21:36:57.216Z,53.72
2022-12-25T21:37:57.161Z,52.42
2022-12-25T21:38:57.100Z,54.09
2022-12-25T21:39:57.065Z,53.07
2022-12-25T21:40:57.014Z,52.67
2022-12-25T21:41:56.934Z,53.43
2022-12-25T21:42:56.894Z,53.11
2022-12-25T21:43:56.834Z,55.30
2022-12-25T21:44:56.785Z,52.68
2022-12-25T21:45:56.765Z,54.45
2022-12-25T21:46:56.662Z,50.08
2022-12-25T21:48:01.955Z,52.26
2022-12-25T21:48:57.551Z,52.44
2022-12-25T21:49:56.481Z,52.73
2022-12-25T21:50:56.412Z,51.54
2022-12-25T21:51:56.353Z,54.13
2022-12-25T21:52:56.303Z,52.17
2022-12-25T21:53:56.235Z,53.79
2022-12-25T21:54:56.176Z,55.14
2022-12-25T21:55:56.130Z,54.37
2022-12-25T21:56:56.070Z,52.88
2022-12-25T21:57:56.017Z,52.66
2022-12-25T21:58:55.950Z,54.58
2022-12-25T21:59:55.892Z,53.33
2022-12-25T22:00:55.903Z,51.81
2022-12-25T22:01:55.863Z,53.07
2022-12-25T22:02:55.796Z,52.07
2022-12-25T22:03:55.680Z,51.38
2022-12-25T22:04:55.607Z,51.54
2022-12-25T22:05:55.539Z,54.73
2022-12-25T22:06:55.482Z,53.67
2022-12-25T22:07:55.457Z,55.66
2022-12-25T22:08:55.381Z,51.44
2022-12-25T22:09:55.309Z,55.53
2022-12-25T22:10:55.251Z,50.63
2022-12-25T22:11:55.219Z,53.32
2022-12-25T22:12:55.280Z,54.54
2022-12-25T22:13:55.085Z,52.42
2022-12-25T22:14:56.706Z,52.58
2022-12-25T22:15:55.010Z,52.83
2022-12-25T22:16:54.890Z,52.60
2022-12-25T22:17:54.847Z,53.32
2022-12-25T22:18:54.781Z,52.93
2022-12-25T22:19:54.756Z,54.61
2022-12-25T22:20:54.695Z,56.11
2022-12-25T22:21:54.596Z,55.04
2022-12-25T22:22:54.569Z,52.39
2022-12-25T22:23:54.487Z,54.53
2022-12-25T22:24:54.431Z,53.81
2022-12-25T22:25:54.363Z,54.20
2022-12-25T22:26:54.323Z,53.74
2022-12-25T22:27:54.260Z,55.82
2022-12-25T22:28:54.208Z,54.29
2022-12-25T22:29:54.124Z,52.60
2022-12-25T22:30:54.151Z,52.85
2022-12-25T22:31:54.050Z,54.99
2022-12-25T22:32:53.980Z,51.72
2022-12-25T22:33:53.887Z,53.30
2022-12-25T22:34:53.840Z,52.63
2022-12-25T22:35:53.801Z,52.50
2022-12-25T22:36:53.721Z,53.56
2022-12-25T22:37:53.663Z,54.25
2022-12-25T22:38:53.643Z,54.11
2022-12-25T22:39:53.557Z,51.54
2022-12-25T22:40:53.496Z,54.19
2022-12-25T22:41:53.436Z,53.68
2022-12-25T22:42:53.380Z,53.60
2022-12-25T22:44:16.562Z,53.13
2022-12-25T22:44:54.271Z,53.37
2022-12-25T22:45:53.241Z,53.21
2022-12-25T22:46:53.164Z,53.56
2022-12-25T22:47:53.106Z,54.13
2022-12-25T22:48:53.040Z,53.37
2022-12-25T22:49:52.980Z,52.44
2022-12-25T22:50:52.931Z,51.66
2022-12-25T22:51:52.865Z,53.71
2022-12-25T22:52:52.836Z,51.66
2022-12-25T22:53:52.762Z,52.79
2022-12-25T22:54:52.713Z,53.93
2022-12-25T22:55:52.670Z,51.08
2022-12-25T22:56:52.701Z,53.52
2022-12-25T22:57:52.580Z,53.88
2022-12-25T22:58:52.494Z,54.04
2022-12-25T22:59:52.649Z,54.10
2022-12-25T23:00:52.389Z,51.83
2022-12-25T23:01:52.392Z,52.33
2022-12-25T23:02:52.473Z,53.26
2022-12-25T23:03:52.288Z,53.27
2022-12-25T23:04:52.187Z,53.67
2022-12-25T23:05:52.113Z,52.24
2022-12-25T23:06:52.068Z,52.93
2022-12-25T23:07:52.011Z,52.65
2022-12-25T23:08:51.940Z,53.53
2022-12-25T23:09:51.894Z,54.62
2022-12-25T23:10:51.837Z,52.08
2022-12-25T23:11:51.815Z,54.92
2022-12-25T23:12:51.723Z,52.89
2022-12-25T23:13:51.660Z,52.43
2022-12-25T23:14:51.604Z,53.36
2022-12-25T23:15:51.622Z,54.24
2022-12-25T23:16:51.497Z,53.88
2022-12-25T23:17:51.437Z,53.42
2022-12-25T23:18:51.388Z,53.05
2022-12-25T23:19:51.316Z,53.77
2022-12-25T23:20:51.268Z,52.43
2022-12-25T23:21:51.203Z,50.72
2022-12-25T23:22:51.144Z,54.01
2022-12-25T23:23:51.085Z,56.29
2022-12-25T23:24:51.083Z,55.92
2022-12-25T23:25:51.009Z,54.00
2022-12-25T23:26:50.934Z,53.53
2022-12-25T23:27:50.895Z,52.69
2022-12-25T23:28:50.842Z,53.85
2022-12-25T23:29:50.789Z,52.97
2022-12-25T23:30:50.758Z,53.76
2022-12-25T23:31:50.783Z,52.98
2022-12-25T23:32:50.626Z,53.88
2022-12-25T23:33:50.565Z,53.82
2022-12-25T23:34:50.508Z,52.89
2022-12-25T23:35:50.483Z,54.22
2022-12-25T23:36:50.401Z,53.15
2022-12-25T23:37:50.337Z,54.04
2022-12-25T23:38:50.282Z,53.00
2022-12-25T23:39:50.244Z,54.38
2022-12-25T23:40:50.196Z,56.49
2022-12-25T23:41:50.101Z,53.86
